Time;durP1;ratioP1;P1;durP2;ratioP2;P2;SDS_P1;SDS_P2;PMS_P1;PMS_P2;Temp;Humidity;BMP_temperature;BMP_pressure;BME280_temperature;BME280_humidity;BME280_pressure;Samples;Min_cycle;Max_cycle;Signal;HPM_P1;HPM_P2
2024/04/14 00:00:15;;;;;;;6.00;2.23;;;15.30;99.90;;;;;;5429241;26;20252;-57
2024/04/14 00:02:44;;;;;;;7.57;2.83;;;15.30;99.90;;;;;;5420407;26;20319;-57
2024/04/14 00:05:10;;;;;;;5.77;2.33;;;15.30;99.90;;;;;;5458342;26;20227;-60
2024/04/14 00:07:40;;;;;;;2.93;2.00;;;15.20;99.90;;;;;;5422824;26;20288;-59
2024/04/14 00:10:06;;;;;;;5.47;2.60;;;15.20;99.90;;;;;;5459410;26;20230;-58
2024/04/14 00:12:34;;;;;;;5.57;2.00;;;15.10;99.90;;;;;;5447686;26;20587;-59
2024/04/14 00:15:03;;;;;;;5.33;2.80;;;15.10;99.90;;;;;;5466135;26;20270;-58
2024/04/14 00:17:34;;;;;;;4.47;2.13;;;15.00;99.90;;;;;;5403803;26;20333;-58
2024/04/14 00:20:00;;;;;;;2.30;1.80;;;15.00;99.90;;;;;;5458368;26;20234;-55
2024/04/14 00:22:29;;;;;;;6.20;2.33;;;14.90;99.90;;;;;;5415160;26;20765;-58
2024/04/14 00:24:55;;;;;;;4.20;2.20;;;14.90;99.90;;;;;;5461704;26;20223;-56
2024/04/14 00:27:23;;;;;;;4.50;1.77;;;14.80;99.90;;;;;;5440378;26;20240;-58
2024/04/14 00:29:49;;;;;;;5.57;2.20;;;14.80;99.90;;;;;;5455471;26;20986;-56
2024/04/14 00:32:18;;;;;;;4.47;2.10;;;14.80;99.90;;;;;;5420659;26;20808;-55
2024/04/14 00:34:46;;;;;;;9.27;2.90;;;14.80;99.90;;;;;;5437612;26;20277;-58
2024/04/14 00:37:17;;;;;;;5.03;2.40;;;14.80;99.90;;;;;;5415927;26;20643;-57
2024/04/14 00:39:43;;;;;;;10.13;2.63;;;14.70;99.90;;;;;;5461289;26;20227;-56
2024/04/14 00:42:11;;;;;;;8.60;2.43;;;14.70;99.90;;;;;;5467688;26;20235;-56
2024/04/14 00:44:37;;;;;;;6.63;2.90;;;14.70;99.90;;;;;;5431120;26;20234;-57
2024/04/14 00:47:06;;;;;;;6.70;2.77;;;14.60;99.90;;;;;;5442320;26;20787;-57
2024/04/14 00:49:34;;;;;;;5.87;2.03;;;14.60;99.90;;;;;;5442643;26;20625;-57
2024/04/14 00:52:07;;;;;;;5.33;3.20;;;14.60;99.90;;;;;;5418907;26;20298;-57
2024/04/14 00:54:33;;;;;;;5.93;2.87;;;14.60;99.90;;;;;;5468780;26;20559;-58
2024/04/14 00:57:02;;;;;;;5.60;2.57;;;14.60;99.90;;;;;;5462027;26;20273;-57
2024/04/14 00:59:28;;;;;;;10.33;3.77;;;14.60;99.90;;;;;;5430977;26;20300;-56
2024/04/14 01:01:56;;;;;;;7.10;2.57;;;14.60;99.90;;;;;;5445744;26;20315;-58
2024/04/14 01:04:22;;;;;;;7.03;2.63;;;14.50;99.90;;;;;;5435466;26;20235;-57
2024/04/14 01:06:51;;;;;;;7.23;2.57;;;14.50;99.90;;;;;;5407274;26;20476;-57
2024/04/14 01:09:19;;;;;;;11.10;2.40;;;14.50;99.90;;;;;;5464709;26;20230;-53
2024/04/14 01:11:48;;;;;;;7.43;2.63;;;14.50;99.90;;;;;;5453963;26;20238;-55
2024/04/14 01:14:16;;;;;;;7.10;2.90;;;14.40;99.90;;;;;;5431427;26;20370;-58
2024/04/14 01:16:45;;;;;;;8.97;2.97;;;14.30;99.90;;;;;;5445998;26;20227;-57
2024/04/14 01:19:11;;;;;;;6.67;3.33;;;14.10;99.90;;;;;;5449794;26;20239;-53
2024/04/14 01:21:40;;;;;;;7.40;3.37;;;13.90;99.90;;;;;;5466858;26;20250;-58
2024/04/14 01:24:06;;;;;;;8.43;3.67;;;13.80;99.90;;;;;;5411802;26;20239;-55
2024/04/14 01:26:37;;;;;;;5.10;3.30;;;13.70;99.90;;;;;;5456105;26;20281;-56
2024/04/14 01:29:03;;;;;;;6.53;3.90;;;13.50;99.90;;;;;;5459597;26;20281;-57
2024/04/14 01:31:32;;;;;;;5.80;3.03;;;13.50;99.90;;;;;;5434120;26;20239;-58
2024/04/14 01:33:58;;;;;;;7.10;3.60;;;13.50;99.90;;;;;;5452253;26;20230;-57
2024/04/14 01:36:26;;;;;;;11.77;4.00;;;13.40;99.90;;;;;;5442867;26;20837;-56
2024/04/14 01:38:52;;;;;;;10.23;4.20;;;13.40;99.90;;;;;;5397989;26;20242;-56
2024/04/14 01:41:20;;;;;;;9.23;4.13;;;13.40;99.90;;;;;;5439747;26;20285;-57
2024/04/14 01:43:49;;;;;;;9.50;3.17;;;13.40;99.90;;;;;;5463392;26;20266;-57
2024/04/14 01:46:18;;;;;;;9.37;3.67;;;13.40;99.90;;;;;;5431010;26;20249;-56
2024/04/14 01:48:43;;;;;;;8.30;3.40;;;13.40;99.90;;;;;;5427921;26;21173;-56
2024/04/14 01:51:12;;;;;;;12.47;3.97;;;13.40;99.90;;;;;;5433500;26;20235;-56
2024/04/14 01:53:38;;;;;;;8.30;3.93;;;13.30;99.90;;;;;;5411149;26;21136;-56
2024/04/14 01:56:07;;;;;;;7.10;4.27;;;13.40;99.90;;;;;;5451177;26;20239;-55
2024/04/14 01:58:33;;;;;;;9.17;3.83;;;13.30;99.90;;;;;;5465783;26;20258;-58
2024/04/14 02:01:04;;;;;;;9.13;3.57;;;13.30;99.90;;;;;;5441282;26;20251;-57
2024/04/14 02:03:29;;;;;;;11.70;4.47;;;13.30;99.90;;;;;;5460469;26;20281;-57
2024/04/14 02:05:59;;;;;;;12.67;3.50;;;13.30;99.90;;;;;;5421061;26;20234;-58
2024/04/14 02:08:24;;;;;;;9.23;4.03;;;13.30;99.90;;;;;;5446786;26;20242;-58
2024/04/14 02:10:53;;;;;;;10.23;3.73;;;13.30;99.90;;;;;;5409945;26;20243;-57
2024/04/14 02:13:19;;;;;;;6.37;3.60;;;13.30;99.90;;;;;;5466001;26;20231;-57
2024/04/14 02:15:48;;;;;;;16.17;4.20;;;13.20;99.90;;;;;;5460348;26;20982;-57
2024/04/14 02:18:16;;;;;;;11.73;3.53;;;13.20;99.90;;;;;;5432846;26;20258;-55
2024/04/14 02:20:46;;;;;;;8.27;3.40;;;13.10;99.90;;;;;;5419200;26;21257;-57
2024/04/14 02:23:12;;;;;;;3.60;2.63;;;13.10;99.90;;;;;;5457323;26;20282;-57
2024/04/14 02:25:40;;;;;;;8.83;2.63;;;12.90;99.90;;;;;;5409031;26;20242;-57
2024/04/14 02:28:06;;;;;;;9.53;2.53;;;12.80;99.90;;;;;;5471069;26;20312;-56
2024/04/14 02:30:34;;;;;;;8.63;2.57;;;12.70;99.90;;;;;;5466238;26;20238;-59
2024/04/14 02:33:00;;;;;;;12.57;3.07;;;12.60;99.90;;;;;;5442251;26;20327;-57
2024/04/14 02:35:32;;;;;;;10.37;3.27;;;12.50;99.90;;;;;;5451566;26;20294;-58
2024/04/14 02:37:57;;;;;;;8.50;2.60;;;12.40;99.90;;;;;;5441113;26;20327;-56
2024/04/14 02:40:26;;;;;;;9.70;2.40;;;12.30;99.90;;;;;;5414417;26;20284;-57
2024/04/14 02:42:52;;;;;;;6.90;2.53;;;12.30;99.90;;;;;;5467226;26;20337;-56
2024/04/14 02:45:20;;;;;;;9.60;2.07;;;12.10;99.90;;;;;;5466535;26;20768;-56
2024/04/14 02:47:47;;;;;;;9.47;2.40;;;12.10;99.90;;;;;;5459834;26;20326;-55
2024/04/14 02:50:15;;;;;;;8.67;2.70;;;12.00;99.90;;;;;;5431455;26;20737;-56
2024/04/14 02:52:44;;;;;;;7.90;2.87;;;12.00;99.90;;;;;;5423625;26;20328;-54
2024/04/14 02:55:12;;;;;;;11.83;2.57;;;12.00;99.90;;;;;;5416668;26;20277;-57
2024/04/14 02:57:38;;;;;;;6.80;2.23;;;12.00;99.90;;;;;;5457588;26;20231;-58
2024/04/14 03:00:08;;;;;;;9.47;2.40;;;11.90;99.90;;;;;;5453969;26;20340;-54
2024/04/14 03:02:34;;;;;;;6.10;2.10;;;11.90;99.90;;;;;;5442100;26;20236;-57
2024/04/14 03:05:02;;;;;;;8.27;2.40;;;11.80;99.90;;;;;;5423945;26;20234;-55
2024/04/14 03:07:28;;;;;;;9.63;2.63;;;11.70;99.90;;;;;;5403642;26;20248;-56
2024/04/14 03:09:59;;;;;;;7.30;2.00;;;11.70;99.90;;;;;;5456221;26;20280;-56
2024/04/14 03:12:25;;;;;;;8.40;2.87;;;11.70;99.90;;;;;;5414709;26;20289;-56
2024/04/14 03:14:55;;;;;;;4.47;2.13;;;11.70;99.90;;;;;;5459906;26;20907;-57
2024/04/14 03:17:25;;;;;;;8.83;2.10;;;11.60;99.90;;;;;;5450336;26;20234;-58
2024/04/14 03:19:54;;;;;;;20.57;2.53;;;11.60;99.90;;;;;;5432648;26;20248;-56
2024/04/14 03:22:20;;;;;;;9.10;2.33;;;11.50;99.90;;;;;;5442501;26;20359;-58
2024/04/14 03:24:49;;;;;;;9.30;2.13;;;11.50;99.90;;;;;;5446703;26;20226;-54
2024/04/14 03:27:18;;;;;;;8.93;2.00;;;11.40;99.90;;;;;;5408610;26;20290;-57
2024/04/14 03:29:48;;;;;;;7.70;1.70;;;11.40;99.90;;;;;;5460866;26;20286;-57
2024/04/14 03:32:14;;;;;;;7.90;2.00;;;11.40;99.90;;;;;;5453333;26;20274;-58
2024/04/14 03:34:45;;;;;;;5.80;2.10;;;11.30;99.90;;;;;;5444584;26;20894;-55
2024/04/14 03:37:13;;;;;;;10.50;2.13;;;11.30;99.90;;;;;;5456347;26;20278;-57
2024/04/14 03:39:42;;;;;;;8.50;1.80;;;11.20;99.90;;;;;;5456761;26;20324;-57
2024/04/14 03:42:10;;;;;;;10.93;1.80;;;11.20;99.90;;;;;;5419491;26;20239;-57
2024/04/14 03:44:42;;;;;;;8.80;2.57;;;11.10;99.90;;;;;;5453166;26;20231;-57
2024/04/14 03:47:11;;;;;;;4.30;1.50;;;11.10;99.90;;;;;;5437553;26;20231;-57
2024/04/14 03:49:39;;;;;;;5.83;1.63;;;11.00;99.90;;;;;;5441953;26;20900;-56
2024/04/14 03:52:05;;;;;;;5.40;1.90;;;11.00;99.90;;;;;;5452468;26;20235;-56
2024/04/14 03:54:34;;;;;;;10.60;2.00;;;10.90;99.90;;;;;;5435907;26;20438;-55
2024/04/14 03:57:01;;;;;;;7.07;1.63;;;10.90;99.90;;;;;;5389536;26;20323;-56
2024/04/14 03:59:30;;;;;;;12.67;2.00;;;10.90;99.90;;;;;;5433823;26;21174;-55
2024/04/14 04:01:58;;;;;;;6.37;2.10;;;10.80;99.90;;;;;;5451063;26;20717;-57
2024/04/14 04:04:27;;;;;;;7.00;1.80;;;10.80;99.90;;;;;;5453558;26;20238;-58
2024/04/14 04:06:52;;;;;;;5.90;1.50;;;10.70;99.90;;;;;;5440002;26;20286;-54
2024/04/14 04:09:21;;;;;;;9.60;1.60;;;10.70;99.90;;;;;;5425922;26;20235;-58
2024/04/14 04:11:47;;;;;;;6.83;2.03;;;10.60;99.90;;;;;;5396089;26;20276;-57
2024/04/14 04:14:17;;;;;;;9.17;2.00;;;10.60;99.90;;;;;;5438926;26;20240;-57
2024/04/14 04:16:43;;;;;;;8.00;1.60;;;10.50;99.90;;;;;;5462618;26;20269;-57
2024/04/14 04:19:14;;;;;;;7.20;1.50;;;10.50;99.90;;;;;;5467348;26;20679;-59
2024/04/14 04:21:40;;;;;;;6.17;1.43;;;10.40;99.90;;;;;;5438406;26;20237;-52
2024/04/14 04:24:09;;;;;;;9.23;1.83;;;10.40;99.90;;;;;;5430702;26;20334;-56
2024/04/14 04:26:35;;;;;;;13.27;2.03;;;10.40;99.90;;;;;;5450622;26;20234;-56
2024/04/14 04:29:03;;;;;;;3.90;1.33;;;10.30;99.90;;;;;;5398507;26;20783;-57
2024/04/14 04:31:29;;;;;;;11.17;1.90;;;10.30;99.90;;;;;;5458123;26;20780;-55
2024/04/14 04:33:57;;;;;;;11.33;2.00;;;10.30;99.90;;;;;;5461759;26;20729;-54
2024/04/14 04:36:26;;;;;;;12.00;1.83;;;10.20;99.90;;;;;;5440319;26;20594;-57
2024/04/14 04:38:56;;;;;;;6.90;1.60;;;10.20;99.90;;;;;;5424228;26;20231;-57
2024/04/14 04:41:22;;;;;;;8.77;1.47;;;10.20;99.90;;;;;;5447186;26;20305;-58
2024/04/14 04:43:50;;;;;;;8.87;2.17;;;10.10;99.90;;;;;;5389400;26;20277;-56
2024/04/14 04:46:16;;;;;;;6.87;1.63;;;10.10;99.90;;;;;;5459201;26;20235;-55
2024/04/14 04:48:44;;;;;;;12.43;1.73;;;10.10;99.90;;;;;;5453699;26;20709;-57
2024/04/14 04:51:10;;;;;;;6.73;2.03;;;10.10;99.90;;;;;;5449989;26;20232;-55
2024/04/14 04:53:41;;;;;;;9.47;2.17;;;10.10;99.90;;;;;;5408518;26;20241;-54
2024/04/14 04:56:07;;;;;;;5.97;1.40;;;10.00;99.90;;;;;;5429081;26;20789;-56
2024/04/14 04:58:36;;;;;;;8.37;1.80;;;10.00;99.90;;;;;;5407966;26;20275;-53
2024/04/14 05:01:02;;;;;;;11.40;1.73;;;10.00;99.90;;;;;;5433770;26;20643;-58
2024/04/14 05:03:30;;;;;;;11.37;1.30;;;10.00;99.90;;;;;;5455555;26;20223;-56
2024/04/14 05:05:59;;;;;;;11.27;1.83;;;10.00;99.90;;;;;;5457894;26;20231;-58
2024/04/14 05:08:28;;;;;;;12.10;2.30;;;10.00;99.90;;;;;;5426766;26;20333;-56
2024/04/14 05:10:58;;;;;;;8.70;1.83;;;10.00;99.90;;;;;;5415027;26;20628;-58
2024/04/14 05:13:27;;;;;;;5.63;1.60;;;10.00;99.90;;;;;;5399586;26;20247;-57
2024/04/14 05:15:53;;;;;;;8.10;1.77;;;10.00;99.90;;;;;;5424766;26;20259;-60
2024/04/14 05:18:22;;;;;;;6.37;2.60;;;10.00;99.90;;;;;;5441749;26;20238;-57
2024/04/14 05:20:48;;;;;;;8.43;2.13;;;10.00;99.90;;;;;;5433198;26;20235;-56
2024/04/14 05:23:17;;;;;;;6.50;2.00;;;10.00;99.90;;;;;;5426506;26;20279;-56
2024/04/14 05:25:43;;;;;;;8.77;2.20;;;10.00;99.90;;;;;;5421010;26;20251;-52
2024/04/14 05:28:15;;;;;;;7.73;1.40;;;10.00;99.90;;;;;;5440733;26;20236;-55
2024/04/14 05:30:41;;;;;;;4.47;1.40;;;10.00;99.90;;;;;;5387090;26;21013;-52
2024/04/14 05:33:09;;;;;;;5.10;1.23;;;10.00;99.90;;;;;;5438116;26;20369;-57
2024/04/14 05:35:35;;;;;;;2.63;0.87;;;10.00;99.90;;;;;;5421298;26;21160;-57
2024/04/14 05:38:04;;;;;;;9.67;1.67;;;10.00;99.90;;;;;;5437774;26;20429;-56
2024/04/14 05:40:30;;;;;;;9.13;2.10;;;10.00;99.90;;;;;;5419319;26;20252;-57
2024/04/14 05:42:59;;;;;;;8.47;2.37;;;10.00;99.90;;;;;;5433987;26;20617;-56
2024/04/14 05:45:28;;;;;;;6.43;1.73;;;10.00;99.90;;;;;;5409100;26;20251;-57
2024/04/14 05:47:57;;;;;;;6.93;1.57;;;10.10;99.90;;;;;;5426718;26;20236;-57
2024/04/14 05:50:23;;;;;;;8.03;1.47;;;10.10;99.90;;;;;;5424711;26;21095;-58
2024/04/14 05:52:52;;;;;;;7.53;1.40;;;10.10;99.90;;;;;;5450220;26;20239;-56
2024/04/14 05:55:18;;;;;;;13.30;1.80;;;10.10;99.90;;;;;;5433463;26;20404;-56
2024/04/14 05:57:47;;;;;;;8.77;1.60;;;10.20;99.90;;;;;;5434542;26;21160;-52
2024/04/14 06:00:12;;;;;;;4.80;1.50;;;10.20;99.90;;;;;;5462038;26;20240;-52
2024/04/14 06:02:47;;;;;;;9.10;1.50;;;10.20;99.90;;;;;;5398227;26;20399;-54
2024/04/14 06:05:13;;;;;;;6.30;1.20;;;10.20;99.90;;;;;;5434405;26;20240;-55
2024/04/14 06:07:42;;;;;;;10.63;1.70;;;10.30;99.90;;;;;;5448606;26;21038;-48
2024/04/14 06:10:08;;;;;;;6.13;1.73;;;10.30;99.90;;;;;;5453450;26;20235;-54
2024/04/14 06:12:36;;;;;;;10.30;2.20;;;10.30;99.90;;;;;;5401112;26;20240;-51
2024/04/14 06:15:03;;;;;;;10.63;1.33;;;10.30;99.90;;;;;;5434249;26;20643;-55
2024/04/14 06:17:31;;;;;;;8.67;1.40;;;10.30;99.90;;;;;;5384088;26;20359;-56
2024/04/14 06:20:01;;;;;;;9.60;1.87;;;10.30;99.90;;;;;;5453292;26;20243;-49
2024/04/14 06:22:30;;;;;;;9.70;1.90;;;10.30;99.90;;;;;;5423718;26;20689;-54
2024/04/14 06:24:56;;;;;;;9.47;1.87;;;10.30;99.90;;;;;;5452350;26;20262;-50
2024/04/14 06:27:25;;;;;;;10.70;1.80;;;10.30;99.90;;;;;;5420220;26;20232;-55
2024/04/14 06:29:51;;;;;;;10.90;1.83;;;10.30;99.90;;;;;;5416657;26;20262;-52
2024/04/14 06:32:19;;;;;;;11.17;2.00;;;10.30;99.90;;;;;;5414523;26;20304;-56
2024/04/14 06:34:46;;;;;;;8.60;1.70;;;10.30;99.90;;;;;;5422336;26;20239;-48
2024/04/14 06:37:17;;;;;;;11.27;2.07;;;10.30;99.90;;;;;;5431785;26;20782;-50
2024/04/14 06:39:43;;;;;;;10.57;1.63;;;10.30;99.90;;;;;;5459930;26;21039;-52
2024/04/14 06:42:13;;;;;;;14.60;2.57;;;10.40;99.90;;;;;;5448220;26;20236;-53
2024/04/14 06:44:38;;;;;;;8.67;1.60;;;10.40;99.90;;;;;;5414305;26;20283;-49
2024/04/14 06:47:07;;;;;;;9.63;1.70;;;10.50;99.90;;;;;;5450301;26;20235;-50
2024/04/14 06:49:33;;;;;;;8.27;1.63;;;10.50;99.90;;;;;;5396291;26;21051;-53
2024/04/14 06:52:02;;;;;;;8.93;2.13;;;10.50;99.90;;;;;;5459630;26;20320;-53
2024/04/14 06:54:31;;;;;;;12.23;1.67;;;10.60;99.90;;;;;;5434874;26;20346;-55
2024/04/14 06:57:00;;;;;;;9.97;2.30;;;10.50;99.90;;;;;;5441515;26;20222;-53
2024/04/14 06:59:26;;;;;;;7.20;1.53;;;10.50;99.90;;;;;;5399768;26;20339;-55
2024/04/14 07:01:54;;;;;;;9.10;2.00;;;10.50;99.90;;;;;;5453308;26;20250;-51
2024/04/14 07:04:20;;;;;;;6.47;1.80;;;10.40;99.90;;;;;;5413188;26;20309;-56
2024/04/14 07:06:48;;;;;;;8.53;1.80;;;10.50;99.90;;;;;;5453886;26;21246;-50
2024/04/14 07:09:15;;;;;;;6.37;1.40;;;10.50;99.90;;;;;;5427173;26;20230;-54
2024/04/14 07:11:47;;;;;;;16.20;2.17;;;10.60;99.90;;;;;;5442368;26;20239;-54
2024/04/14 07:14:13;;;;;;;11.33;2.20;;;10.60;99.90;;;;;;5412928;26;20723;-52
2024/04/14 07:16:41;;;;;;;8.30;1.43;;;10.60;99.90;;;;;;5422237;26;20230;-52
2024/04/14 07:19:08;;;;;;;9.73;2.50;;;10.70;99.90;;;;;;5408869;26;20248;-48
2024/04/14 07:21:39;;;;;;;12.17;2.00;;;10.80;99.90;;;;;;5453804;26;20315;-52
2024/04/14 07:24:05;;;;;;;7.80;1.80;;;10.90;99.90;;;;;;5431612;26;20233;-53
2024/04/14 07:26:34;;;;;;;6.03;2.27;;;10.90;99.90;;;;;;5408125;26;20243;-56
2024/04/14 07:29:03;;;;;;;11.70;1.47;;;10.90;99.90;;;;;;5428131;26;20296;-51
2024/04/14 07:31:31;;;;;;;8.33;1.70;;;10.90;99.90;;;;;;5430866;26;20460;-56
2024/04/14 07:33:59;;;;;;;8.83;2.27;;;10.90;99.90;;;;;;5420941;26;20356;-50
2024/04/14 07:36:27;;;;;;;9.30;1.90;;;10.90;99.90;;;;;;5460407;26;20566;-57
2024/04/14 07:38:53;;;;;;;7.07;1.73;;;10.90;99.90;;;;;;5445935;26;20231;-57
2024/04/14 07:41:22;;;;;;;10.93;1.90;;;10.90;99.90;;;;;;5433839;26;21162;-52
2024/04/14 07:43:49;;;;;;;11.87;1.87;;;11.00;99.90;;;;;;5457658;26;20804;-56
2024/04/14 07:46:22;;;;;;;8.37;1.83;;;11.00;99.90;;;;;;5420504;26;20293;-53
2024/04/14 07:48:49;;;;;;;11.77;2.37;;;11.10;99.90;;;;;;5450271;26;20232;-58
2024/04/14 07:51:18;;;;;;;8.17;1.70;;;11.10;99.90;;;;;;5425247;26;20430;-53
2024/04/14 07:53:44;;;;;;;7.30;1.60;;;11.20;99.90;;;;;;5457308;26;20234;-52
2024/04/14 07:56:12;;;;;;;12.63;2.63;;;11.30;99.90;;;;;;5429230;26;20282;-52
2024/04/14 07:58:38;;;;;;;8.47;1.90;;;11.30;99.90;;;;;;5448905;26;20238;-54
2024/04/14 08:01:06;;;;;;;9.60;1.63;;;11.30;99.90;;;;;;5419689;26;20730;-57
2024/04/14 08:03:35;;;;;;;7.10;1.80;;;11.30;99.90;;;;;;5429824;26;20616;-56
2024/04/14 08:06:03;;;;;;;10.03;1.67;;;11.30;99.90;;;;;;5381988;26;20250;-56
2024/04/14 08:08:29;;;;;;;11.60;2.10;;;11.20;99.90;;;;;;5409986;26;22967;-57
2024/04/14 08:10:58;;;;;;;7.33;1.63;;;11.20;99.90;;;;;;5429704;26;20722;-56
2024/04/14 08:13:24;;;;;;;5.10;1.40;;;11.20;99.90;;;;;;5429685;26;20231;-57
2024/04/14 08:15:52;;;;;;;10.27;1.70;;;11.20;99.90;;;;;;5433807;26;20278;-56
2024/04/14 08:18:22;;;;;;;8.13;1.83;;;11.40;99.90;;;;;;5456010;26;20993;-58
2024/04/14 08:37:55;;;;;;;4.53;1.40;;;11.40;99.90;;;;;;5290816;26;20890;-51
2024/04/14 08:40:21;;;;;;;9.63;2.30;;;11.40;99.90;;;;;;5364028;26;20246;-52
2024/04/14 08:42:49;;;;;;;2.63;1.17;;;11.40;99.90;;;;;;5313024;26;20568;-51
2024/04/14 08:45:19;;;;;;;6.47;1.60;;;11.60;99.90;;;;;;5361701;26;20576;-54
2024/04/14 08:47:49;;;;;;;5.90;1.37;;;11.70;99.90;;;;;;5335887;26;20238;-53
2024/04/14 08:50:16;;;;;;;7.73;1.50;;;11.70;99.90;;;;;;5362638;26;20280;-49
2024/04/14 08:52:45;;;;;;;8.37;1.73;;;11.80;99.90;;;;;;5317090;26;20254;-43
2024/04/14 08:55:14;;;;;;;8.77;1.33;;;11.80;99.90;;;;;;5362938;26;20631;-44
2024/04/14 08:57:43;;;;;;;4.87;1.60;;;11.90;99.90;;;;;;5343837;26;20242;-57
2024/04/14 09:00:12;;;;;;;9.33;1.87;;;12.20;99.90;;;;;;5356172;26;20814;-55
2024/04/14 09:02:42;;;;;;;9.30;1.40;;;12.20;99.90;;;;;;5343767;26;20288;-56
2024/04/14 09:05:08;;;;;;;6.03;1.77;;;12.30;99.90;;;;;;5364148;26;20342;-49
2024/04/14 09:07:37;;;;;;;5.83;1.20;;;12.20;99.90;;;;;;5344598;26;20233;-57
2024/04/14 09:10:04;;;;;;;5.43;1.27;;;12.30;99.90;;;;;;5338988;26;21124;-55
2024/04/14 09:12:36;;;;;;;5.17;1.40;;;12.30;99.90;;;;;;5362096;26;20276;-55
2024/04/14 09:15:04;;;;;;;7.30;2.00;;;12.30;99.90;;;;;;5326320;26;20245;-54
2024/04/14 09:17:34;;;;;;;3.53;1.40;;;12.50;99.90;;;;;;5356738;26;20365;-55
2024/04/14 09:20:00;;;;;;;9.00;1.67;;;12.50;99.90;;;;;;5359229;26;20548;-50
2024/04/14 09:22:29;;;;;;;7.30;1.63;;;12.40;99.90;;;;;;5364340;26;20507;-56
2024/04/14 09:24:55;;;;;;;10.00;1.57;;;12.30;99.90;;;;;;5321219;26;20293;-51
2024/04/14 09:27:24;;;;;;;7.90;1.33;;;12.10;99.90;;;;;;5357920;26;20242;-57
2024/04/14 09:29:55;;;;;;;4.70;1.47;;;12.10;99.90;;;;;;5325746;26;20254;-55
2024/04/14 09:32:25;;;;;;;6.53;1.40;;;12.00;99.90;;;;;;5366016;26;20234;-58
2024/04/14 09:34:51;;;;;;;8.27;1.37;;;12.10;99.90;;;;;;5348113;26;20230;-58
2024/04/14 09:37:21;;;;;;;7.30;1.53;;;12.20;99.90;;;;;;5365231;26;20363;-53
2024/04/14 09:39:49;;;;;;;4.50;1.10;;;12.30;99.90;;;;;;5311367;26;20257;-55
2024/04/14 09:42:18;;;;;;;6.30;1.43;;;12.40;99.90;;;;;;5350098;26;20301;-55
2024/04/14 09:44:49;;;;;;;7.70;1.70;;;12.40;99.90;;;;;;5329978;26;20599;-52
2024/04/14 09:47:17;;;;;;;5.83;1.13;;;12.40;99.90;;;;;;5361856;26;20230;-55
2024/04/14 09:49:49;;;;;;;6.50;1.30;;;12.30;99.90;;;;;;5353122;26;20246;-53
2024/04/14 09:52:17;;;;;;;3.53;0.87;;;12.30;99.90;;;;;;5363640;26;20226;-56
2024/04/14 09:54:46;;;;;;;4.07;1.10;;;12.30;99.90;;;;;;5319987;26;20246;-57
2024/04/14 09:57:12;;;;;;;6.83;1.13;;;12.30;99.90;;;;;;5340479;26;20273;-57
2024/04/14 09:59:41;;;;;;;4.60;0.80;;;12.40;99.90;;;;;;5359930;26;20736;-56
2024/04/14 10:02:13;;;;;;;4.53;1.07;;;12.50;99.90;;;;;;5336219;26;20242;-56
2024/04/14 10:04:45;;;;;;;7.53;2.10;;;12.60;99.90;;;;;;5351696;26;20229;-52
2024/04/14 10:07:13;;;;;;;2.83;1.20;;;12.80;99.90;;;;;;5361661;26;20264;-56
2024/04/14 10:09:47;;;;;;;4.70;0.97;;;12.70;99.90;;;;;;5314657;26;20356;-53
2024/04/14 10:12:13;;;;;;;5.40;1.10;;;12.80;99.90;;;;;;5345514;26;20246;-57
2024/04/14 10:14:46;;;;;;;6.57;1.33;;;12.90;99.90;;;;;;5360446;26;20285;-51
2024/04/14 10:17:12;;;;;;;9.53;1.60;;;13.00;99.90;;;;;;5341496;26;20241;-58
2024/04/14 10:19:51;;;;;;;3.67;0.90;;;13.10;99.90;;;;;;5352388;26;20728;-54
2024/04/14 10:22:21;;;;;;;3.43;1.10;;;13.10;99.90;;;;;;5307796;26;20242;-56
2024/04/14 10:24:50;;;;;;;6.33;1.53;;;13.20;99.90;;;;;;5307285;26;20280;-57
2024/04/14 10:27:17;;;;;;;5.83;1.30;;;13.20;99.90;;;;;;5351928;26;20234;-57
2024/04/14 10:29:56;;;;;;;4.67;1.67;;;13.50;99.90;;;;;;5346656;26;20250;-55
2024/04/14 10:32:22;;;;;;;3.67;1.60;;;13.60;99.90;;;;;;5342589;26;20245;-57
2024/04/14 10:34:53;;;;;;;5.10;1.27;;;13.60;99.90;;;;;;5359921;26;20238;-57
2024/04/14 10:37:22;;;;;;;7.17;1.87;;;13.50;99.90;;;;;;5341870;26;20276;-58
2024/04/14 10:39:52;;;;;;;6.00;1.07;;;13.30;99.90;;;;;;5330781;26;20329;-55
2024/04/14 10:42:18;;;;;;;7.93;1.60;;;13.20;99.90;;;;;;5336983;26;20253;-54
2024/04/14 10:44:47;;;;;;;6.30;1.87;;;13.20;99.90;;;;;;5350900;26;20368;-56
2024/04/14 10:47:15;;;;;;;7.83;1.10;;;13.30;99.90;;;;;;5327446;26;20316;-56
2024/04/14 10:49:45;;;;;;;4.43;1.10;;;13.30;99.90;;;;;;5359569;26;20759;-55
2024/04/14 10:52:15;;;;;;;3.40;1.20;;;13.60;99.90;;;;;;5338542;26;20229;-55
2024/04/14 10:54:43;;;;;;;4.77;1.47;;;13.80;99.90;;;;;;5359774;26;20284;-56
2024/04/14 10:57:10;;;;;;;6.90;1.20;;;13.40;99.90;;;;;;5319646;26;20234;-55
2024/04/14 10:59:40;;;;;;;5.30;1.30;;;13.40;99.90;;;;;;5334723;26;20238;-55
2024/04/14 11:02:07;;;;;;;2.13;0.90;;;13.40;99.90;;;;;;5349774;26;20233;-57
2024/04/14 11:04:37;;;;;;;4.73;1.50;;;13.30;99.90;;;;;;5322989;26;20245;-55
2024/04/14 11:07:03;;;;;;;3.17;1.20;;;13.50;99.90;;;;;;5343924;26;20293;-54
2024/04/14 11:09:35;;;;;;;3.23;1.17;;;13.60;99.90;;;;;;5354651;26;20338;-56
2024/04/14 11:12:03;;;;;;;3.43;1.20;;;13.60;99.90;;;;;;5314260;26;20300;-52
2024/04/14 11:14:31;;;;;;;4.83;1.00;;;13.60;99.90;;;;;;5345615;26;20284;-56
2024/04/14 11:17:10;;;;;;;3.97;1.53;;;13.60;99.90;;;;;;5362721;26;20402;-52
2024/04/14 11:19:39;;;;;;;3.40;1.07;;;13.90;99.90;;;;;;5312598;26;20250;-57
2024/04/14 11:22:05;;;;;;;2.63;0.80;;;14.20;99.90;;;;;;5348373;26;20705;-56
2024/04/14 11:24:38;;;;;;;2.67;1.00;;;14.20;99.90;;;;;;5355663;26;20233;-53
2024/04/14 11:27:04;;;;;;;3.23;1.00;;;14.20;99.90;;;;;;5315320;26;20569;-55
2024/04/14 11:29:32;;;;;;;5.23;1.30;;;14.10;99.90;;;;;;5341475;26;22062;-55
2024/04/14 11:32:07;;;;;;;4.47;1.27;;;14.10;99.70;;;;;;5354641;26;20358;-57
2024/04/14 11:34:36;;;;;;;5.00;1.40;;;13.90;99.90;;;;;;5311710;26;20755;-52
2024/04/14 11:37:02;;;;;;;4.17;1.03;;;13.60;99.90;;;;;;5352780;26;20306;-55
2024/04/14 11:39:31;;;;;;;3.77;1.10;;;13.40;99.90;;;;;;5357350;26;20286;-55
2024/04/14 11:41:59;;;;;;;4.03;1.00;;;13.30;99.90;;;;;;5329581;26;20245;-52
2024/04/14 11:44:28;;;;;;;2.00;1.30;;;13.10;99.90;;;;;;5350248;26;20281;-56
2024/04/14 11:46:54;;;;;;;7.73;0.83;;;12.90;99.90;;;;;;5321804;26;20241;-55
2024/04/14 11:49:22;;;;;;;6.33;1.10;;;12.90;99.90;;;;;;5348808;26;20685;-58
2024/04/14 11:51:48;;;;;;;6.17;0.90;;;12.90;99.90;;;;;;5323803;26;20293;-55
2024/04/14 11:54:17;;;;;;;6.20;1.50;;;13.00;99.90;;;;;;5361821;26;20238;-56
2024/04/14 11:56:43;;;;;;;5.70;1.30;;;13.00;99.90;;;;;;5322263;26;20703;-56
2024/04/14 11:59:14;;;;;;;4.93;1.30;;;13.20;99.90;;;;;;5347345;26;20321;-52
2024/04/14 12:01:39;;;;;;;6.23;1.27;;;13.30;99.90;;;;;;5320225;26;20639;-54
2024/04/14 12:04:10;;;;;;;1.87;0.80;;;13.30;99.90;;;;;;5347159;26;20241;-56
2024/04/14 12:06:36;;;;;;;3.43;0.90;;;13.40;99.80;;;;;;5328795;26;20250;-54
2024/04/14 12:09:05;;;;;;;5.43;1.00;;;13.40;98.20;;;;;;5354640;26;20276;-56
2024/04/14 12:11:33;;;;;;;4.40;0.97;;;13.40;97.20;;;;;;5337594;26;20237;-53
2024/04/14 12:14:01;;;;;;;6.40;1.00;;;13.30;97.60;;;;;;5303133;26;20261;-55
2024/04/14 12:16:35;;;;;;;3.43;0.93;;;13.40;97.80;;;;;;5343982;26;20237;-58
2024/04/14 12:19:02;;;;;;;5.57;0.90;;;13.40;98.20;;;;;;5348371;26;20284;-61
2024/04/14 12:21:30;;;;;;;3.40;1.10;;;13.30;98.80;;;;;;5324869;26;20292;-59
2024/04/14 12:23:56;;;;;;;0.67;0.67;;;13.30;98.90;;;;;;5344297;26;20304;-58
2024/04/14 12:26:24;;;;;;;1.87;0.93;;;13.30;99.20;;;;;;5354840;26;20234;-60
2024/04/14 12:28:50;;;;;;;4.27;1.03;;;13.30;99.00;;;;;;5299526;26;20276;-58
2024/04/14 12:31:19;;;;;;;5.97;0.93;;;13.20;99.20;;;;;;5355012;26;20238;-60
2024/04/14 12:33:47;;;;;;;5.80;1.57;;;13.20;99.60;;;;;;5338015;26;20797;-58
2024/04/14 12:36:16;;;;;;;3.47;1.17;;;13.20;99.80;;;;;;5321946;26;20241;-59
2024/04/14 12:38:42;;;;;;;4.07;1.33;;;13.30;99.90;;;;;;5358547;26;20797;-60
2024/04/14 12:41:11;;;;;;;2.00;0.90;;;13.50;99.80;;;;;;5349426;26;20276;-58
2024/04/14 12:43:37;;;;;;;4.30;1.03;;;13.60;99.80;;;;;;5314957;26;20748;-60
2024/04/14 12:46:06;;;;;;;6.33;1.23;;;13.70;99.90;;;;;;5350132;26;20242;-60
2024/04/14 12:48:32;;;;;;;3.97;1.07;;;13.80;99.90;;;;;;5346829;26;20269;-61
2024/04/14 12:51:03;;;;;;;4.00;1.27;;;13.70;99.90;;;;;;5359781;26;20238;-59
2024/04/14 12:53:29;;;;;;;3.03;0.73;;;13.60;99.90;;;;;;5323822;26;20394;-61
2024/04/14 12:55:58;;;;;;;3.27;1.00;;;13.40;99.90;;;;;;5349693;26;20241;-60
2024/04/14 12:58:24;;;;;;;5.03;1.40;;;13.40;99.90;;;;;;5313483;26;20238;-60
2024/04/14 13:00:55;;;;;;;5.60;1.10;;;13.60;99.90;;;;;;5360110;26;20287;-61
2024/04/14 13:03:21;;;;;;;4.87;0.70;;;13.90;99.90;;;;;;5349880;26;20241;-57
2024/04/14 13:05:50;;;;;;;4.57;0.90;;;13.80;99.70;;;;;;5368401;26;20284;-60